sensor_id;sensor_type;location;lat;lon;timestamp;P1;durP1;ratioP1;P2;durP2;ratioP2
5569;SDS011;2808;51.240;6.794;2023-02-15T00:01:47;36.87;;;18.10;;
5569;SDS011;2808;51.240;6.794;2023-02-15T00:04:16;40.33;;;18.97;;
5569;SDS011;2808;51.240;6.794;2023-02-15T00:06:45;39.90;;;18.37;;
5569;SDS011;2808;51.240;6.794;2023-02-15T00:09:12;38.03;;;18.40;;
5569;SDS011;2808;51.240;6.794;2023-02-15T00:11:40;37.87;;;18.00;;
5569;SDS011;2808;51.240;6.794;2023-02-15T00:14:15;40.40;;;18.07;;
5569;SDS011;2808;51.240;6.794;2023-02-15T00:16:44;42.27;;;18.73;;
5569;SDS011;2808;51.240;6.794;2023-02-15T00:19:12;37.70;;;17.87;;
5569;SDS011;2808;51.240;6.794;2023-02-15T00:21:42;36.73;;;17.40;;
5569;SDS011;2808;51.240;6.794;2023-02-15T00:24:10;41.23;;;19.47;;
5569;SDS011;2808;51.240;6.794;2023-02-15T00:26:40;42.03;;;19.80;;
5569;SDS011;2808;51.240;6.794;2023-02-15T00:29:09;38.87;;;18.00;;
5569;SDS011;2808;51.240;6.794;2023-02-15T00:31:38;45.90;;;19.27;;
5569;SDS011;2808;51.240;6.794;2023-02-15T00:34:05;44.07;;;19.43;;
5569;SDS011;2808;51.240;6.794;2023-02-15T00:36:36;40.83;;;18.37;;
5569;SDS011;2808;51.240;6.794;2023-02-15T00:39:05;42.87;;;19.97;;
5569;SDS011;2808;51.240;6.794;2023-02-15T00:41:39;45.03;;;19.37;;
5569;SDS011;2808;51.240;6.794;2023-02-15T00:44:07;39.20;;;18.40;;
5569;SDS011;2808;51.240;6.794;2023-02-15T00:46:35;46.30;;;20.97;;
5569;SDS011;2808;51.240;6.794;2023-02-15T00:49:02;41.20;;;19.03;;
5569;SDS011;2808;51.240;6.794;2023-02-15T00:51:30;41.10;;;18.10;;
5569;SDS011;2808;51.240;6.794;2023-02-15T00:53:58;40.93;;;19.00;;
5569;SDS011;2808;51.240;6.794;2023-02-15T00:56:27;47.03;;;19.23;;
5569;SDS011;2808;51.240;6.794;2023-02-15T00:58:54;43.10;;;19.03;;
5569;SDS011;2808;51.240;6.794;2023-02-15T01:01:22;44.63;;;19.23;;
5569;SDS011;2808;51.240;6.794;2023-02-15T01:03:50;41.63;;;19.17;;
5569;SDS011;2808;51.240;6.794;2023-02-15T01:06:18;43.60;;;19.30;;
5569;SDS011;2808;51.240;6.794;2023-02-15T01:08:45;45.27;;;18.80;;
5569;SDS011;2808;51.240;6.794;2023-02-15T01:11:15;44.50;;;20.10;;
5569;SDS011;2808;51.240;6.794;2023-02-15T01:13:48;43.60;;;20.83;;
5569;SDS011;2808;51.240;6.794;2023-02-15T01:16:19;40.80;;;19.40;;
5569;SDS011;2808;51.240;6.794;2023-02-15T01:18:48;42.20;;;19.03;;
5569;SDS011;2808;51.240;6.794;2023-02-15T01:21:16;43.93;;;19.90;;
5569;SDS011;2808;51.240;6.794;2023-02-15T01:23:45;43.33;;;20.20;;
5569;SDS011;2808;51.240;6.794;2023-02-15T01:26:13;44.30;;;19.57;;
5569;SDS011;2808;51.240;6.794;2023-02-15T01:28:41;43.30;;;20.27;;
5569;SDS011;2808;51.240;6.794;2023-02-15T01:31:10;40.50;;;18.83;;
5569;SDS011;2808;51.240;6.794;2023-02-15T01:33:39;41.53;;;19.90;;
5569;SDS011;2808;51.240;6.794;2023-02-15T01:36:07;42.17;;;20.27;;
5569;SDS011;2808;51.240;6.794;2023-02-15T01:38:35;41.13;;;18.90;;
5569;SDS011;2808;51.240;6.794;2023-02-15T01:41:02;38.67;;;17.97;;
5569;SDS011;2808;51.240;6.794;2023-02-15T01:43:52;44.93;;;20.30;;
5569;SDS011;2808;51.240;6.794;2023-02-15T01:46:24;37.90;;;18.00;;
5569;SDS011;2808;51.240;6.794;2023-02-15T01:48:56;40.00;;;18.67;;
5569;SDS011;2808;51.240;6.794;2023-02-15T01:51:29;39.50;;;18.80;;
5569;SDS011;2808;51.240;6.794;2023-02-15T01:53:59;39.57;;;18.97;;
5569;SDS011;2808;51.240;6.794;2023-02-15T01:56:29;46.63;;;21.40;;
5569;SDS011;2808;51.240;6.794;2023-02-15T01:58:59;41.80;;;19.10;;
5569;SDS011;2808;51.240;6.794;2023-02-15T02:01:34;43.67;;;19.97;;
5569;SDS011;2808;51.240;6.794;2023-02-15T02:04:02;40.23;;;18.97;;
5569;SDS011;2808;51.240;6.794;2023-02-15T02:06:35;48.13;;;19.80;;
5569;SDS011;2808;51.240;6.794;2023-02-15T02:09:03;38.77;;;18.53;;
5569;SDS011;2808;51.240;6.794;2023-02-15T02:11:31;40.40;;;19.40;;
5569;SDS011;2808;51.240;6.794;2023-02-15T02:13:59;40.97;;;19.20;;
5569;SDS011;2808;51.240;6.794;2023-02-15T02:16:28;40.20;;;18.90;;
5569;SDS011;2808;51.240;6.794;2023-02-15T02:27:47;47.67;;;19.20;;
5569;SDS011;2808;51.240;6.794;2023-02-15T02:33:20;38.27;;;18.20;;
5569;SDS011;2808;51.240;6.794;2023-02-15T02:36:15;45.53;;;19.20;;
5569;SDS011;2808;51.240;6.794;2023-02-15T02:38:58;43.00;;;19.50;;
5569;SDS011;2808;51.240;6.794;2023-02-15T02:41:36;44.30;;;19.73;;
5569;SDS011;2808;51.240;6.794;2023-02-15T02:44:11;45.97;;;19.27;;
5569;SDS011;2808;51.240;6.794;2023-02-15T02:46:46;38.50;;;19.03;;
5569;SDS011;2808;51.240;6.794;2023-02-15T02:49:17;42.40;;;19.47;;
5569;SDS011;2808;51.240;6.794;2023-02-15T02:51:59;40.07;;;18.27;;
5569;SDS011;2808;51.240;6.794;2023-02-15T02:54:27;47.43;;;20.60;;
5569;SDS011;2808;51.240;6.794;2023-02-15T02:56:56;49.43;;;20.20;;
5569;SDS011;2808;51.240;6.794;2023-02-15T02:59:29;45.87;;;19.30;;
5569;SDS011;2808;51.240;6.794;2023-02-15T03:02:00;48.40;;;20.03;;
5569;SDS011;2808;51.240;6.794;2023-02-15T03:04:35;50.40;;;21.03;;
5569;SDS011;2808;51.240;6.794;2023-02-15T03:07:07;49.93;;;20.90;;
5569;SDS011;2808;51.240;6.794;2023-02-15T03:09:39;41.57;;;19.57;;
5569;SDS011;2808;51.240;6.794;2023-02-15T03:12:08;42.83;;;20.10;;
5569;SDS011;2808;51.240;6.794;2023-02-15T03:14:39;40.10;;;18.90;;
5569;SDS011;2808;51.240;6.794;2023-02-15T03:17:08;40.40;;;19.10;;
5569;SDS011;2808;51.240;6.794;2023-02-15T03:19:39;44.33;;;21.00;;
5569;SDS011;2808;51.240;6.794;2023-02-15T03:22:11;42.80;;;19.80;;
5569;SDS011;2808;51.240;6.794;2023-02-15T03:24:47;43.67;;;19.47;;
5569;SDS011;2808;51.240;6.794;2023-02-15T03:27:19;42.93;;;20.17;;
5569;SDS011;2808;51.240;6.794;2023-02-15T03:29:51;40.43;;;18.60;;
5569;SDS011;2808;51.240;6.794;2023-02-15T03:32:22;41.23;;;19.40;;
5569;SDS011;2808;51.240;6.794;2023-02-15T03:34:52;42.70;;;18.60;;
5569;SDS011;2808;51.240;6.794;2023-02-15T03:37:22;46.30;;;20.67;;
5569;SDS011;2808;51.240;6.794;2023-02-15T03:39:59;45.47;;;19.77;;
5569;SDS011;2808;51.240;6.794;2023-02-15T03:42:51;40.63;;;19.60;;
5569;SDS011;2808;51.240;6.794;2023-02-15T03:45:25;43.87;;;19.33;;
5569;SDS011;2808;51.240;6.794;2023-02-15T03:47:56;42.77;;;18.27;;
5569;SDS011;2808;51.240;6.794;2023-02-15T03:50:28;43.80;;;19.20;;
5569;SDS011;2808;51.240;6.794;2023-02-15T03:53:16;40.93;;;19.37;;
5569;SDS011;2808;51.240;6.794;2023-02-15T03:55:47;39.07;;;19.40;;
5569;SDS011;2808;51.240;6.794;2023-02-15T03:58:15;46.37;;;19.43;;
5569;SDS011;2808;51.240;6.794;2023-02-15T04:01:02;43.67;;;19.33;;
5569;SDS011;2808;51.240;6.794;2023-02-15T04:03:55;44.17;;;18.63;;
5569;SDS011;2808;51.240;6.794;2023-02-15T04:06:28;39.60;;;19.30;;
5569;SDS011;2808;51.240;6.794;2023-02-15T04:08:55;46.10;;;20.50;;
5569;SDS011;2808;51.240;6.794;2023-02-15T04:11:40;41.43;;;19.63;;
5569;SDS011;2808;51.240;6.794;2023-02-15T04:14:07;40.87;;;20.30;;
5569;SDS011;2808;51.240;6.794;2023-02-15T04:16:49;47.50;;;20.50;;
5569;SDS011;2808;51.240;6.794;2023-02-15T04:19:16;43.40;;;19.30;;
5569;SDS011;2808;51.240;6.794;2023-02-15T04:22:03;50.73;;;20.03;;
5569;SDS011;2808;51.240;6.794;2023-02-15T04:24:47;41.77;;;19.17;;
5569;SDS011;2808;51.240;6.794;2023-02-15T04:27:32;47.07;;;20.97;;
5569;SDS011;2808;51.240;6.794;2023-02-15T04:29:59;39.30;;;19.30;;
5569;SDS011;2808;51.240;6.794;2023-02-15T04:32:27;40.00;;;19.43;;
5569;SDS011;2808;51.240;6.794;2023-02-15T04:34:54;45.33;;;20.10;;
5569;SDS011;2808;51.240;6.794;2023-02-15T04:37:23;43.70;;;19.80;;
5569;SDS011;2808;51.240;6.794;2023-02-15T04:39:50;47.67;;;20.57;;
5569;SDS011;2808;51.240;6.794;2023-02-15T04:42:18;47.73;;;20.03;;
5569;SDS011;2808;51.240;6.794;2023-02-15T04:44:45;55.43;;;20.10;;
5569;SDS011;2808;51.240;6.794;2023-02-15T04:47:12;43.23;;;20.20;;
5569;SDS011;2808;51.240;6.794;2023-02-15T04:49:40;44.33;;;18.43;;
5569;SDS011;2808;51.240;6.794;2023-02-15T04:52:07;39.43;;;19.00;;
5569;SDS011;2808;51.240;6.794;2023-02-15T04:54:36;43.57;;;18.57;;
5569;SDS011;2808;51.240;6.794;2023-02-15T04:57:04;45.70;;;19.87;;
5569;SDS011;2808;51.240;6.794;2023-02-15T04:59:31;45.90;;;19.13;;
5569;SDS011;2808;51.240;6.794;2023-02-15T05:01:59;45.20;;;18.67;;
5569;SDS011;2808;51.240;6.794;2023-02-15T05:04:26;44.00;;;19.67;;
5569;SDS011;2808;51.240;6.794;2023-02-15T05:06:54;41.50;;;18.63;;
5569;SDS011;2808;51.240;6.794;2023-02-15T05:09:21;41.03;;;19.13;;
5569;SDS011;2808;51.240;6.794;2023-02-15T05:11:50;42.60;;;19.00;;
5569;SDS011;2808;51.240;6.794;2023-02-15T05:14:17;41.13;;;18.73;;
5569;SDS011;2808;51.240;6.794;2023-02-15T05:16:45;50.57;;;21.00;;
5569;SDS011;2808;51.240;6.794;2023-02-15T05:19:12;40.57;;;19.30;;
5569;SDS011;2808;51.240;6.794;2023-02-15T05:21:39;51.20;;;21.03;;
5569;SDS011;2808;51.240;6.794;2023-02-15T05:24:07;45.87;;;20.60;;
5569;SDS011;2808;51.240;6.794;2023-02-15T05:26:49;43.87;;;18.90;;
5569;SDS011;2808;51.240;6.794;2023-02-15T05:29:34;45.30;;;20.40;;
5569;SDS011;2808;51.240;6.794;2023-02-15T05:32:02;40.87;;;18.97;;
5569;SDS011;2808;51.240;6.794;2023-02-15T05:34:30;42.50;;;19.43;;
5569;SDS011;2808;51.240;6.794;2023-02-15T05:36:57;41.10;;;18.93;;
5569;SDS011;2808;51.240;6.794;2023-02-15T05:39:24;44.23;;;19.33;;
5569;SDS011;2808;51.240;6.794;2023-02-15T05:41:53;48.33;;;19.60;;
5569;SDS011;2808;51.240;6.794;2023-02-15T05:44:24;40.90;;;18.43;;
5569;SDS011;2808;51.240;6.794;2023-02-15T05:46:51;41.30;;;17.87;;
5569;SDS011;2808;51.240;6.794;2023-02-15T05:49:18;49.27;;;19.10;;
5569;SDS011;2808;51.240;6.794;2023-02-15T05:51:46;40.73;;;18.40;;
5569;SDS011;2808;51.240;6.794;2023-02-15T05:54:13;41.63;;;19.23;;
5569;SDS011;2808;51.240;6.794;2023-02-15T05:56:41;40.70;;;18.90;;
5569;SDS011;2808;51.240;6.794;2023-02-15T05:59:10;44.67;;;18.33;;
5569;SDS011;2808;51.240;6.794;2023-02-15T06:01:37;41.23;;;18.53;;
5569;SDS011;2808;51.240;6.794;2023-02-15T06:04:05;43.53;;;18.50;;
5569;SDS011;2808;51.240;6.794;2023-02-15T06:06:32;44.70;;;19.03;;
5569;SDS011;2808;51.240;6.794;2023-02-15T06:09:00;45.37;;;18.70;;
5569;SDS011;2808;51.240;6.794;2023-02-15T06:11:28;49.00;;;18.90;;
5569;SDS011;2808;51.240;6.794;2023-02-15T06:13:55;39.90;;;18.27;;
5569;SDS011;2808;51.240;6.794;2023-02-15T06:16:24;40.73;;;18.30;;
5569;SDS011;2808;51.240;6.794;2023-02-15T06:18:51;39.97;;;18.77;;
5569;SDS011;2808;51.240;6.794;2023-02-15T06:21:18;46.53;;;19.93;;
5569;SDS011;2808;51.240;6.794;2023-02-15T06:23:46;39.60;;;18.23;;
5569;SDS011;2808;51.240;6.794;2023-02-15T06:26:13;51.10;;;19.13;;
5569;SDS011;2808;51.240;6.794;2023-02-15T06:28:41;43.83;;;19.20;;
5569;SDS011;2808;51.240;6.794;2023-02-15T06:31:08;36.83;;;17.00;;
5569;SDS011;2808;51.240;6.794;2023-02-15T06:33:37;40.80;;;18.80;;
5569;SDS011;2808;51.240;6.794;2023-02-15T06:36:04;42.67;;;18.37;;
5569;SDS011;2808;51.240;6.794;2023-02-15T06:38:32;42.40;;;18.60;;
5569;SDS011;2808;51.240;6.794;2023-02-15T06:40:59;44.20;;;19.77;;
5569;SDS011;2808;51.240;6.794;2023-02-15T06:43:27;42.47;;;18.03;;
5569;SDS011;2808;51.240;6.794;2023-02-15T06:45:54;41.43;;;18.60;;
5569;SDS011;2808;51.240;6.794;2023-02-15T06:48:25;42.30;;;18.70;;
5569;SDS011;2808;51.240;6.794;2023-02-15T06:50:54;41.10;;;18.37;;
5569;SDS011;2808;51.240;6.794;2023-02-15T06:53:24;40.77;;;17.83;;
5569;SDS011;2808;51.240;6.794;2023-02-15T06:55:51;44.27;;;17.87;;
5569;SDS011;2808;51.240;6.794;2023-02-15T06:58:19;39.87;;;17.87;;
5569;SDS011;2808;51.240;6.794;2023-02-15T07:00:46;41.00;;;18.30;;
5569;SDS011;2808;51.240;6.794;2023-02-15T07:03:15;41.03;;;17.97;;
5569;SDS011;2808;51.240;6.794;2023-02-15T07:05:45;40.07;;;18.60;;
5569;SDS011;2808;51.240;6.794;2023-02-15T07:08:15;36.67;;;18.23;;
5569;SDS011;2808;51.240;6.794;2023-02-15T07:10:45;40.10;;;16.60;;
5569;SDS011;2808;51.240;6.794;2023-02-15T07:13:12;39.30;;;17.47;;
5569;SDS011;2808;51.240;6.794;2023-02-15T07:15:38;39.50;;;16.30;;
5569;SDS011;2808;51.240;6.794;2023-02-15T07:18:06;36.53;;;16.83;;
5569;SDS011;2808;51.240;6.794;2023-02-15T07:20:34;44.20;;;18.00;;
5569;SDS011;2808;51.240;6.794;2023-02-15T07:23:01;38.00;;;17.30;;
5569;SDS011;2808;51.240;6.794;2023-02-15T07:25:30;40.67;;;17.60;;
5569;SDS011;2808;51.240;6.794;2023-02-15T07:27:58;47.00;;;18.30;;
5569;SDS011;2808;51.240;6.794;2023-02-15T07:30:26;42.10;;;17.10;;
5569;SDS011;2808;51.240;6.794;2023-02-15T07:32:54;41.43;;;17.00;;
5569;SDS011;2808;51.240;6.794;2023-02-15T07:35:45;41.37;;;17.67;;
5569;SDS011;2808;51.240;6.794;2023-02-15T07:38:14;37.47;;;16.70;;
5569;SDS011;2808;51.240;6.794;2023-02-15T07:40:42;34.60;;;15.63;;
5569;SDS011;2808;51.240;6.794;2023-02-15T07:43:12;36.73;;;16.03;;
5569;SDS011;2808;51.240;6.794;2023-02-15T07:45:40;41.10;;;17.20;;
5569;SDS011;2808;51.240;6.794;2023-02-15T07:48:07;39.17;;;17.40;;
5569;SDS011;2808;51.240;6.794;2023-02-15T07:50:35;36.30;;;16.57;;
5569;SDS011;2808;51.240;6.794;2023-02-15T07:53:02;38.03;;;16.67;;
5569;SDS011;2808;51.240;6.794;2023-02-15T07:55:30;47.50;;;17.03;;
5569;SDS011;2808;51.240;6.794;2023-02-15T07:57:59;40.20;;;15.67;;
5569;SDS011;2808;51.240;6.794;2023-02-15T08:00:27;43.00;;;15.73;;
5569;SDS011;2808;51.240;6.794;2023-02-15T08:03:18;32.43;;;16.23;;
5569;SDS011;2808;51.240;6.794;2023-02-15T08:05:45;32.00;;;15.43;;
5569;SDS011;2808;51.240;6.794;2023-02-15T08:08:12;32.70;;;15.80;;
5569;SDS011;2808;51.240;6.794;2023-02-15T08:10:57;33.10;;;15.43;;
5569;SDS011;2808;51.240;6.794;2023-02-15T08:13:46;31.27;;;15.50;;
5569;SDS011;2808;51.240;6.794;2023-02-15T08:16:22;32.60;;;15.73;;
5569;SDS011;2808;51.240;6.794;2023-02-15T08:18:50;38.87;;;14.93;;
5569;SDS011;2808;51.240;6.794;2023-02-15T08:21:18;35.03;;;15.57;;
5569;SDS011;2808;51.240;6.794;2023-02-15T08:23:46;31.77;;;15.10;;
5569;SDS011;2808;51.240;6.794;2023-02-15T08:26:13;30.87;;;15.87;;
5569;SDS011;2808;51.240;6.794;2023-02-15T08:28:42;31.93;;;15.73;;
5569;SDS011;2808;51.240;6.794;2023-02-15T08:31:12;28.63;;;14.30;;
5569;SDS011;2808;51.240;6.794;2023-02-15T08:33:41;32.80;;;14.63;;
5569;SDS011;2808;51.240;6.794;2023-02-15T08:36:11;30.43;;;14.50;;
5569;SDS011;2808;51.240;6.794;2023-02-15T08:38:39;24.90;;;14.33;;
5569;SDS011;2808;51.240;6.794;2023-02-15T08:41:11;28.80;;;14.47;;
5569;SDS011;2808;51.240;6.794;2023-02-15T08:43:40;31.83;;;14.60;;
5569;SDS011;2808;51.240;6.794;2023-02-15T08:46:09;28.77;;;14.60;;
5569;SDS011;2808;51.240;6.794;2023-02-15T08:48:39;29.10;;;14.13;;
5569;SDS011;2808;51.240;6.794;2023-02-15T08:51:08;27.40;;;13.43;;
5569;SDS011;2808;51.240;6.794;2023-02-15T08:53:39;26.73;;;13.70;;
5569;SDS011;2808;51.240;6.794;2023-02-15T08:56:09;25.50;;;12.67;;
5569;SDS011;2808;51.240;6.794;2023-02-15T08:58:37;29.20;;;14.03;;
5569;SDS011;2808;51.240;6.794;2023-02-15T09:01:08;29.20;;;14.00;;
5569;SDS011;2808;51.240;6.794;2023-02-15T09:03:37;27.40;;;12.07;;
5569;SDS011;2808;51.240;6.794;2023-02-15T09:06:06;25.40;;;12.77;;
5569;SDS011;2808;51.240;6.794;2023-02-15T09:08:33;29.07;;;14.37;;
5569;SDS011;2808;51.240;6.794;2023-02-15T09:11:04;25.73;;;12.70;;
5569;SDS011;2808;51.240;6.794;2023-02-15T09:13:33;26.43;;;13.07;;
5569;SDS011;2808;51.240;6.794;2023-02-15T09:16:01;24.97;;;12.60;;
5569;SDS011;2808;51.240;6.794;2023-02-15T09:18:30;28.03;;;13.80;;
5569;SDS011;2808;51.240;6.794;2023-02-15T09:21:05;26.53;;;13.30;;
5569;SDS011;2808;51.240;6.794;2023-02-15T09:23:38;32.10;;;14.40;;
5569;SDS011;2808;51.240;6.794;2023-02-15T09:26:06;25.90;;;13.33;;
5569;SDS011;2808;51.240;6.794;2023-02-15T09:28:35;31.87;;;15.07;;
5569;SDS011;2808;51.240;6.794;2023-02-15T09:31:06;30.17;;;14.03;;
5569;SDS011;2808;51.240;6.794;2023-02-15T09:33:36;23.77;;;13.50;;
5569;SDS011;2808;51.240;6.794;2023-02-15T09:36:12;30.77;;;15.00;;
5569;SDS011;2808;51.240;6.794;2023-02-15T09:38:41;27.37;;;13.10;;
5569;SDS011;2808;51.240;6.794;2023-02-15T09:41:14;26.23;;;13.57;;
5569;SDS011;2808;51.240;6.794;2023-02-15T09:43:53;22.73;;;12.57;;
5569;SDS011;2808;51.240;6.794;2023-02-15T09:46:40;26.20;;;12.80;;
5569;SDS011;2808;51.240;6.794;2023-02-15T09:49:22;25.80;;;13.30;;
5569;SDS011;2808;51.240;6.794;2023-02-15T09:52:04;23.83;;;13.20;;
5569;SDS011;2808;51.240;6.794;2023-02-15T09:54:56;24.70;;;12.83;;
5569;SDS011;2808;51.240;6.794;2023-02-15T09:57:36;23.53;;;12.00;;
5569;SDS011;2808;51.240;6.794;2023-02-15T10:00:36;30.50;;;14.20;;
5569;SDS011;2808;51.240;6.794;2023-02-15T10:03:19;24.87;;;12.00;;
5569;SDS011;2808;51.240;6.794;2023-02-15T10:05:59;24.17;;;12.47;;
5569;SDS011;2808;51.240;6.794;2023-02-15T10:08:47;30.37;;;12.80;;
5569;SDS011;2808;51.240;6.794;2023-02-15T10:11:22;23.63;;;12.27;;
5569;SDS011;2808;51.240;6.794;2023-02-15T10:17:03;23.53;;;12.13;;
5569;SDS011;2808;51.240;6.794;2023-02-15T10:19:44;27.97;;;12.47;;
5569;SDS011;2808;51.240;6.794;2023-02-15T10:22:24;24.63;;;13.10;;
5569;SDS011;2808;51.240;6.794;2023-02-15T10:25:14;22.80;;;12.10;;
5569;SDS011;2808;51.240;6.794;2023-02-15T10:27:48;25.00;;;11.67;;
5569;SDS011;2808;51.240;6.794;2023-02-15T10:30:16;23.10;;;11.30;;
5569;SDS011;2808;51.240;6.794;2023-02-15T10:32:55;24.50;;;12.83;;
5569;SDS011;2808;51.240;6.794;2023-02-15T10:35:26;26.20;;;11.90;;
5569;SDS011;2808;51.240;6.794;2023-02-15T10:38:03;22.67;;;11.43;;
5569;SDS011;2808;51.240;6.794;2023-02-15T10:40:42;25.63;;;12.53;;
5569;SDS011;2808;51.240;6.794;2023-02-15T10:43:24;24.93;;;12.23;;
5569;SDS011;2808;51.240;6.794;2023-02-15T10:46:02;27.10;;;12.40;;
5569;SDS011;2808;51.240;6.794;2023-02-15T10:48:42;27.07;;;12.80;;
5569;SDS011;2808;51.240;6.794;2023-02-15T10:51:28;27.77;;;12.20;;
5569;SDS011;2808;51.240;6.794;2023-02-15T10:54:06;28.50;;;13.00;;
5569;SDS011;2808;51.240;6.794;2023-02-15T10:56:43;32.17;;;12.57;;
5569;SDS011;2808;51.240;6.794;2023-02-15T10:59:29;24.80;;;11.37;;
5569;SDS011;2808;51.240;6.794;2023-02-15T11:02:16;23.70;;;11.40;;
5569;SDS011;2808;51.240;6.794;2023-02-15T11:04:53;23.27;;;11.27;;
5569;SDS011;2808;51.240;6.794;2023-02-15T11:07:29;24.40;;;11.63;;
5569;SDS011;2808;51.240;6.794;2023-02-15T11:10:05;21.80;;;11.60;;
5569;SDS011;2808;51.240;6.794;2023-02-15T11:12:53;28.50;;;12.07;;
5569;SDS011;2808;51.240;6.794;2023-02-15T11:15:24;25.03;;;11.83;;
5569;SDS011;2808;51.240;6.794;2023-02-15T11:17:58;24.70;;;12.20;;
5569;SDS011;2808;51.240;6.794;2023-02-15T11:20:33;23.47;;;12.00;;
5569;SDS011;2808;51.240;6.794;2023-02-15T11:23:07;24.73;;;12.50;;
5569;SDS011;2808;51.240;6.794;2023-02-15T11:25:41;24.97;;;11.80;;
5569;SDS011;2808;51.240;6.794;2023-02-15T11:28:16;23.47;;;11.60;;
5569;SDS011;2808;51.240;6.794;2023-02-15T11:30:48;22.93;;;10.97;;
5569;SDS011;2808;51.240;6.794;2023-02-15T11:33:20;26.73;;;12.50;;
5569;SDS011;2808;51.240;6.794;2023-02-15T11:35:53;20.90;;;11.23;;
5569;SDS011;2808;51.240;6.794;2023-02-15T11:38:26;20.73;;;10.30;;
5569;SDS011;2808;51.240;6.794;2023-02-15T11:40:58;27.57;;;12.30;;
5569;SDS011;2808;51.240;6.794;2023-02-15T11:43:31;23.27;;;11.37;;
5569;SDS011;2808;51.240;6.794;2023-02-15T11:46:02;21.50;;;11.27;;
5569;SDS011;2808;51.240;6.794;2023-02-15T11:48:33;24.40;;;12.20;;
5569;SDS011;2808;51.240;6.794;2023-02-15T11:51:01;23.20;;;11.63;;
5569;SDS011;2808;51.240;6.794;2023-02-15T11:53:32;33.20;;;11.57;;
5569;SDS011;2808;51.240;6.794;2023-02-15T11:56:03;20.63;;;10.10;;
5569;SDS011;2808;51.240;6.794;2023-02-15T11:58:40;24.70;;;11.77;;
5569;SDS011;2808;51.240;6.794;2023-02-15T12:01:11;21.00;;;10.90;;
5569;SDS011;2808;51.240;6.794;2023-02-15T12:03:43;23.80;;;10.67;;
5569;SDS011;2808;51.240;6.794;2023-02-15T12:06:16;24.00;;;11.50;;
5569;SDS011;2808;51.240;6.794;2023-02-15T12:08:49;23.00;;;10.40;;
5569;SDS011;2808;51.240;6.794;2023-02-15T12:11:31;21.87;;;12.07;;
5569;SDS011;2808;51.240;6.794;2023-02-15T12:14:04;24.27;;;11.80;;
5569;SDS011;2808;51.240;6.794;2023-02-15T12:16:34;29.63;;;10.60;;
5569;SDS011;2808;51.240;6.794;2023-02-15T12:19:12;24.00;;;12.67;;
5569;SDS011;2808;51.240;6.794;2023-02-15T12:21:53;23.83;;;11.70;;
5569;SDS011;2808;51.240;6.794;2023-02-15T12:24:22;24.17;;;10.57;;
5569;SDS011;2808;51.240;6.794;2023-02-15T12:26:59;26.63;;;11.30;;
5569;SDS011;2808;51.240;6.794;2023-02-15T12:29:31;18.47;;;9.80;;
5569;SDS011;2808;51.240;6.794;2023-02-15T12:32:05;22.03;;;10.90;;
5569;SDS011;2808;51.240;6.794;2023-02-15T12:34:37;22.57;;;10.67;;
5569;SDS011;2808;51.240;6.794;2023-02-15T12:37:09;23.63;;;11.60;;
5569;SDS011;2808;51.240;6.794;2023-02-15T12:39:44;23.80;;;10.57;;
5569;SDS011;2808;51.240;6.794;2023-02-15T12:42:18;21.00;;;10.00;;
5569;SDS011;2808;51.240;6.794;2023-02-15T12:44:55;22.77;;;11.10;;
5569;SDS011;2808;51.240;6.794;2023-02-15T12:47:24;22.37;;;10.70;;
5569;SDS011;2808;51.240;6.794;2023-02-15T12:50:06;22.50;;;10.90;;
5569;SDS011;2808;51.240;6.794;2023-02-15T12:52:44;19.30;;;9.83;;
5569;SDS011;2808;51.240;6.794;2023-02-15T12:55:21;25.83;;;10.33;;
5569;SDS011;2808;51.240;6.794;2023-02-15T12:58:04;21.27;;;10.10;;
5569;SDS011;2808;51.240;6.794;2023-02-15T13:00:34;23.33;;;9.93;;
5569;SDS011;2808;51.240;6.794;2023-02-15T13:03:01;21.63;;;10.60;;
5569;SDS011;2808;51.240;6.794;2023-02-15T13:05:33;17.60;;;9.53;;
5569;SDS011;2808;51.240;6.794;2023-02-15T13:08:09;28.80;;;10.80;;
5569;SDS011;2808;51.240;6.794;2023-02-15T13:10:41;20.17;;;9.60;;
5569;SDS011;2808;51.240;6.794;2023-02-15T13:13:19;24.77;;;10.10;;
5569;SDS011;2808;51.240;6.794;2023-02-15T13:15:52;24.63;;;10.70;;
5569;SDS011;2808;51.240;6.794;2023-02-15T13:18:25;21.43;;;11.07;;
5569;SDS011;2808;51.240;6.794;2023-02-15T13:21:04;19.97;;;10.03;;
5569;SDS011;2808;51.240;6.794;2023-02-15T13:23:37;20.47;;;9.80;;
5569;SDS011;2808;51.240;6.794;2023-02-15T13:26:09;23.67;;;10.47;;
5569;SDS011;2808;51.240;6.794;2023-02-15T13:28:42;21.33;;;10.50;;
5569;SDS011;2808;51.240;6.794;2023-02-15T13:31:14;20.60;;;9.97;;
5569;SDS011;2808;51.240;6.794;2023-02-15T13:33:44;20.83;;;10.57;;
5569;SDS011;2808;51.240;6.794;2023-02-15T13:36:17;24.97;;;10.80;;
5569;SDS011;2808;51.240;6.794;2023-02-15T13:38:55;21.03;;;10.10;;
5569;SDS011;2808;51.240;6.794;2023-02-15T13:41:30;27.10;;;11.33;;
5569;SDS011;2808;51.240;6.794;2023-02-15T13:44:08;26.87;;;9.93;;
5569;SDS011;2808;51.240;6.794;2023-02-15T13:46:45;26.53;;;10.73;;
5569;SDS011;2808;51.240;6.794;2023-02-15T13:49:25;20.63;;;10.03;;
5569;SDS011;2808;51.240;6.794;2023-02-15T13:52:18;22.47;;;9.93;;
5569;SDS011;2808;51.240;6.794;2023-02-15T13:54:53;21.17;;;10.47;;
5569;SDS011;2808;51.240;6.794;2023-02-15T13:57:55;22.17;;;10.27;;
5569;SDS011;2808;51.240;6.794;2023-02-15T14:00:44;19.20;;;9.40;;
5569;SDS011;2808;51.240;6.794;2023-02-15T14:03:39;23.17;;;10.37;;
5569;SDS011;2808;51.240;6.794;2023-02-15T14:06:20;19.87;;;9.80;;
5569;SDS011;2808;51.240;6.794;2023-02-15T14:09:09;23.23;;;10.10;;
5569;SDS011;2808;51.240;6.794;2023-02-15T14:11:48;22.10;;;10.70;;
5569;SDS011;2808;51.240;6.794;2023-02-15T14:17:26;17.90;;;8.27;;
5569;SDS011;2808;51.240;6.794;2023-02-15T14:20:03;20.20;;;9.40;;
5569;SDS011;2808;51.240;6.794;2023-02-15T14:22:42;20.83;;;9.70;;
5569;SDS011;2808;51.240;6.794;2023-02-15T14:25:15;26.50;;;9.43;;
5569;SDS011;2808;51.240;6.794;2023-02-15T14:27:50;20.87;;;8.73;;
5569;SDS011;2808;51.240;6.794;2023-02-15T14:30:22;23.93;;;10.57;;
5569;SDS011;2808;51.240;6.794;2023-02-15T14:32:54;20.77;;;9.50;;
5569;SDS011;2808;51.240;6.794;2023-02-15T14:35:29;22.40;;;9.33;;
5569;SDS011;2808;51.240;6.794;2023-02-15T14:37:58;25.77;;;9.87;;
5569;SDS011;2808;51.240;6.794;2023-02-15T14:40:33;30.50;;;9.97;;
5569;SDS011;2808;51.240;6.794;2023-02-15T14:43:27;21.40;;;9.67;;
5569;SDS011;2808;51.240;6.794;2023-02-15T14:46:08;24.67;;;10.20;;
5569;SDS011;2808;51.240;6.794;2023-02-15T14:48:44;23.43;;;10.33;;
5569;SDS011;2808;51.240;6.794;2023-02-15T14:57:23;26.33;;;10.27;;
5569;SDS011;2808;51.240;6.794;2023-02-15T14:59:54;21.40;;;10.20;;
5569;SDS011;2808;51.240;6.794;2023-02-15T15:02:24;21.10;;;9.20;;
5569;SDS011;2808;51.240;6.794;2023-02-15T15:04:56;30.70;;;10.63;;
5569;SDS011;2808;51.240;6.794;2023-02-15T15:07:35;29.07;;;9.90;;
5569;SDS011;2808;51.240;6.794;2023-02-15T15:10:05;30.33;;;11.87;;
5569;SDS011;2808;51.240;6.794;2023-02-15T15:12:55;20.57;;;9.87;;
5569;SDS011;2808;51.240;6.794;2023-02-15T15:15:32;24.00;;;10.13;;
5569;SDS011;2808;51.240;6.794;2023-02-15T15:18:10;22.87;;;10.33;;
5569;SDS011;2808;51.240;6.794;2023-02-15T15:21:10;25.43;;;11.53;;
5569;SDS011;2808;51.240;6.794;2023-02-15T15:23:58;23.77;;;9.13;;
5569;SDS011;2808;51.240;6.794;2023-02-15T15:26:26;23.23;;;10.07;;
5569;SDS011;2808;51.240;6.794;2023-02-15T15:29:00;20.30;;;9.70;;
5569;SDS011;2808;51.240;6.794;2023-02-15T15:31:31;20.83;;;10.57;;
5569;SDS011;2808;51.240;6.794;2023-02-15T15:34:21;26.23;;;10.67;;
5569;SDS011;2808;51.240;6.794;2023-02-15T15:37:15;23.07;;;10.50;;
5569;SDS011;2808;51.240;6.794;2023-02-15T15:46:21;26.83;;;11.30;;
5569;SDS011;2808;51.240;6.794;2023-02-15T15:49:14;28.03;;;10.77;;
5569;SDS011;2808;51.240;6.794;2023-02-15T15:51:44;26.70;;;11.80;;
5569;SDS011;2808;51.240;6.794;2023-02-15T15:54:16;24.37;;;11.63;;